Time;durP1;ratioP1;P1;durP2;ratioP2;P2;SDS_P1;SDS_P2;PMS_P1;PMS_P2;Temp;Humidity;BMP_temperature;BMP_pressure;BME280_temperature;BME280_humidity;BME280_pressure;Samples;Min_cycle;Max_cycle;Signal;HPM_P1;HPM_P2
2021/10/01 00:01:41;;;;;;;;;1.67;1.67;;;;;-149.00;100.00;66333.84;5119032;28;8821;-79
2021/10/01 00:04:07;;;;;;;;;2.00;2.00;;;;;-149.00;100.00;66333.84;5121082;27;8822;-79
2021/10/01 00:06:32;;;;;;;;;3.67;3.67;;;;;-149.00;100.00;66333.84;5120633;28;8779;-79
2021/10/01 00:08:58;;;;;;;;;1.00;1.00;;;;;-149.00;100.00;66333.84;5119833;28;8885;-79
2021/10/01 00:11:23;;;;;;;;;2.00;2.00;;;;;-149.00;100.00;66333.84;5121705;28;8882;-79
2021/10/01 00:13:49;;;;;;;;;3.33;2.33;;;;;-149.00;100.00;66333.84;5120393;27;8770;-79
2021/10/01 00:16:16;;;;;;;;;1.00;1.00;;;;;-149.00;100.00;66333.84;5120067;28;8771;-79
2021/10/01 00:18:42;;;;;;;;;3.75;2.00;;;;;-149.00;100.00;66333.84;5119951;28;8763;-79
2021/10/01 00:21:08;;;;;;;;;3.00;2.00;;;;;-149.00;100.00;66333.84;5120293;28;8775;-79
2021/10/01 00:23:34;;;;;;;;;1.00;1.00;;;;;-149.00;100.00;66333.84;5120108;28;8783;-79
2021/10/01 00:26:00;;;;;;;;;2.00;2.00;;;;;-149.00;100.00;66333.84;5120387;28;8783;-79
2021/10/01 00:28:26;;;;;;;;;2.00;2.00;;;;;-149.00;100.00;66333.84;5119895;28;11431;-79
2021/10/01 00:30:51;;;;;;;;;4.33;2.67;;;;;-149.00;100.00;66333.84;5105222;28;10592;-79
2021/10/01 00:33:17;;;;;;;;;2.00;2.00;;;;;-149.00;100.00;66333.84;5098556;28;10083;-79
2021/10/01 00:35:42;;;;;;;;;4.00;3.00;;;;;-149.00;100.00;66333.84;5098648;28;8773;-79
2021/10/01 00:38:08;;;;;;;;;3.00;3.00;;;;;-149.00;100.00;66333.84;5098726;28;8777;-79
2021/10/01 00:40:34;;;;;;;;;2.00;2.00;;;;;-149.00;100.00;66333.84;5099191;28;9719;-79
2021/10/01 00:42:59;;;;;;;;;3.00;3.00;;;;;-149.00;100.00;66333.84;5099424;28;8785;-79
2021/10/01 00:45:25;;;;;;;;;2.33;1.67;;;;;-149.00;100.00;66333.84;5099828;28;8888;-79
2021/10/01 00:47:50;;;;;;;;;3.00;3.00;;;;;-149.00;100.00;66333.84;5098584;28;8859;-79
2021/10/01 00:50:16;;;;;;;;;3.00;3.00;;;;;-149.00;100.00;66333.84;5098375;28;8806;-79
2021/10/01 00:52:42;;;;;;;;;2.00;2.00;;;;;-149.00;100.00;66333.84;5098032;28;8797;-79
2021/10/01 00:55:08;;;;;;;;;3.00;3.00;;;;;-149.00;100.00;66333.84;5098631;28;8832;-79
2021/10/01 00:57:34;;;;;;;;;2.00;2.00;;;;;-149.00;100.00;66333.84;5099204;28;11398;-79
2021/10/01 01:00:00;;;;;;;;;5.00;2.67;;;;;-149.00;100.00;66333.84;5098030;28;8793;-79
2021/10/01 01:02:26;;;;;;;;;0.75;0.75;;;;;-149.00;100.00;66333.84;5097611;28;8858;-79
2021/10/01 01:04:53;;;;;;;;;3.75;3.75;;;;;-149.00;100.00;66333.84;5098773;28;8737;-79
2021/10/01 01:07:33;;;;;;;;;4.00;3.00;;;;;-149.00;100.00;66333.84;5098695;28;8735;-79
2021/10/01 01:10:05;;;;;;;;;3.00;3.00;;;;;-149.00;100.00;66333.84;5098968;28;8753;-79
2021/10/01 01:12:50;;;;;;;;;2.75;2.75;;;;;-149.00;100.00;66333.84;5099777;28;8793;-79
2021/10/01 01:15:27;;;;;;;;;3.25;3.25;;;;;-149.00;100.00;66333.84;5099020;28;8723;-79
2021/10/01 01:18:01;;;;;;;;;5.00;3.25;;;;;-149.00;100.00;66333.84;5098247;28;8766;-80
2021/10/01 01:20:27;;;;;;;;;3.75;3.00;;;;;-149.00;100.00;66333.84;5098077;28;8777;-79
2021/10/01 01:23:04;;;;;;;;;3.00;3.00;;;;;-149.00;100.00;66333.84;5097576;28;8786;-79
2021/10/01 01:25:48;;;;;;;;;5.00;4.25;;;;;-149.00;100.00;66333.84;5097424;28;8832;-79
2021/10/01 01:28:19;;;;;;;;;3.25;3.00;;;;;-149.00;100.00;66333.84;5097293;28;9715;-79
2021/10/01 01:30:49;;;;;;;;;3.50;3.50;;;;;-149.00;100.00;66333.84;5110251;28;9657;-79
2021/10/01 01:33:23;;;;;;;;;3.50;3.00;;;;;-149.00;100.00;66333.84;5116969;28;8932;-79
2021/10/01 01:35:57;;;;;;;;;5.75;3.75;;;;;-149.00;100.00;66333.84;5117277;28;8778;-79
2021/10/01 01:38:36;;;;;;;;;5.50;3.00;;;;;-149.00;100.00;66333.84;5117159;28;8809;-80
2021/10/01 01:41:05;;;;;;;;;4.00;4.00;;;;;-149.00;100.00;66333.84;5118038;28;8752;-80
2021/10/01 01:43:32;;;;;;;;;4.25;4.25;;;;;-149.00;100.00;66333.84;5118177;28;9632;-79
2021/10/01 01:46:00;;;;;;;;;5.00;4.00;;;;;-149.00;100.00;66333.84;5118164;28;9661;-79
2021/10/01 01:48:27;;;;;;;;;5.00;5.00;;;;;-149.00;100.00;66333.84;5117561;27;8715;-79
2021/10/01 01:50:54;;;;;;;;;4.00;4.00;;;;;-149.00;100.00;66333.84;5118125;28;8771;-79
2021/10/01 01:53:20;;;;;;;;;3.00;3.00;;;;;-149.00;100.00;66333.84;5118723;28;8779;-79
2021/10/01 01:55:47;;;;;;;;;4.75;4.25;;;;;-149.00;100.00;66333.84;5118198;27;9750;-79
2021/10/01 01:58:15;;;;;;;;;4.75;4.75;;;;;-149.00;100.00;66333.84;5118405;28;9763;-79
2021/10/01 02:00:43;;;;;;;;;5.75;3.75;;;;;-149.00;100.00;66333.84;5117751;28;8782;-79
2021/10/01 02:03:08;;;;;;;;;4.00;4.00;;;;;-149.00;100.00;66333.84;5117291;28;8732;-79
2021/10/01 02:05:35;;;;;;;;;4.00;4.00;;;;;-149.00;100.00;66333.84;5117473;28;8784;-79
2021/10/01 02:08:02;;;;;;;;;3.50;3.50;;;;;-149.00;100.00;66333.84;5118264;28;10860;-79
2021/10/01 02:10:29;;;;;;;;;4.50;4.00;;;;;-149.00;100.00;66333.84;5117934;28;9670;-79
2021/10/01 02:12:57;;;;;;;;;5.00;5.00;;;;;-149.00;100.00;66333.84;5117477;28;8727;-79
2021/10/01 02:15:25;;;;;;;;;4.00;4.00;;;;;-149.00;100.00;66333.84;5118168;28;8744;-79
2021/10/01 02:17:56;;;;;;;;;3.25;3.25;;;;;-149.00;100.00;66333.84;5118159;28;8732;-79
2021/10/01 02:20:23;;;;;;;;;4.25;4.25;;;;;-149.00;100.00;66333.84;5117522;28;8794;-79
2021/10/01 02:22:49;;;;;;;;;4.00;2.50;;;;;-149.00;100.00;66333.84;5118204;28;8781;-79
2021/10/01 02:28:05;;;;;;;;;4.50;4.50;;;;;-149.00;100.00;66333.84;5120923;28;8772;-79
2021/10/01 02:30:33;;;;;;;;;5.00;5.00;;;;;-149.00;100.00;66333.84;5112546;28;8778;-79
2021/10/01 02:33:05;;;;;;;;;3.75;3.75;;;;;-149.00;100.00;66333.84;5100566;28;8856;-79
2021/10/01 02:35:30;;;;;;;;;3.75;2.75;;;;;-149.00;100.00;66333.84;5101764;28;8770;-79
2021/10/01 02:37:56;;;;;;;;;5.00;5.00;;;;;-149.00;100.00;66333.84;5099164;28;8792;-79
2021/10/01 02:40:22;;;;;;;;;4.50;4.25;;;;;-149.00;100.00;66333.84;5100935;28;8770;-79
2021/10/01 02:42:48;;;;;;;;;5.00;5.00;;;;;-149.00;100.00;66333.84;5100450;28;8770;-79
2021/10/01 02:45:15;;;;;;;;;5.00;5.00;;;;;-149.00;100.00;66333.84;5100265;28;8869;-79
2021/10/01 02:47:41;;;;;;;;;3.00;3.00;;;;;-149.00;100.00;66333.84;5100367;28;8892;-79
2021/10/01 02:50:13;;;;;;;;;6.00;5.00;;;;;-149.00;100.00;66333.84;5100756;28;8857;-79
2021/10/01 02:52:53;;;;;;;;;4.00;4.00;;;;;-149.00;100.00;66333.84;5099923;28;8805;-79
2021/10/01 02:55:30;;;;;;;;;4.50;3.75;;;;;-149.00;100.00;66333.84;5098515;28;8928;-79
2021/10/01 02:57:58;;;;;;;;;5.50;5.50;;;;;-149.00;100.00;66333.84;5100386;28;8750;-80
2021/10/01 03:00:24;;;;;;;;;4.00;4.00;;;;;-149.00;100.00;66333.84;5101602;28;8762;-79
2021/10/01 03:02:52;;;;;;;;;4.00;4.00;;;;;-149.00;100.00;66333.84;5101411;28;8781;-80
2021/10/01 03:05:20;;;;;;;;;4.50;4.50;;;;;-149.00;100.00;66333.84;5101074;28;8778;-79
2021/10/01 03:07:47;;;;;;;;;4.00;4.00;;;;;-149.00;100.00;66333.84;5099435;28;8847;-79
2021/10/01 03:10:14;;;;;;;;;4.25;4.25;;;;;-149.00;100.00;66333.84;5100427;28;8794;-79
2021/10/01 03:12:43;;;;;;;;;5.75;4.00;;;;;-149.00;100.00;66333.84;5100171;28;8789;-79
2021/10/01 03:15:10;;;;;;;;;5.00;4.00;;;;;-149.00;100.00;66333.84;5099619;28;8789;-79
2021/10/01 03:17:37;;;;;;;;;3.50;3.50;;;;;-149.00;100.00;66333.84;5100197;28;8766;-79
2021/10/01 03:20:04;;;;;;;;;3.75;3.25;;;;;-149.00;100.00;66333.84;5098320;28;8828;-79
2021/10/01 03:22:33;;;;;;;;;3.75;3.75;;;;;-149.00;100.00;66333.84;5099787;28;8827;-79
2021/10/01 03:25:01;;;;;;;;;5.75;4.00;;;;;-149.00;100.00;66333.84;5100153;28;8831;-79
2021/10/01 03:27:30;;;;;;;;;6.75;5.50;;;;;-149.00;100.00;66333.84;5101179;28;8888;-79
2021/10/01 03:30:00;;;;;;;;;4.00;4.00;;;;;-149.00;100.00;66333.84;5105580;28;8790;-79
2021/10/01 03:32:27;;;;;;;;;4.75;4.75;;;;;-149.00;100.00;66333.84;5120741;28;8771;-80
2021/10/01 03:34:53;;;;;;;;;3.25;3.00;;;;;-149.00;100.00;66333.84;5120814;28;8755;-79
2021/10/01 03:37:21;;;;;;;;;3.75;3.75;;;;;-149.00;100.00;66333.84;5120978;28;8783;-79
2021/10/01 03:40:08;;;;;;;;;4.25;4.25;;;;;-149.00;100.00;66333.84;5121065;27;8783;-79
2021/10/01 03:42:34;;;;;;;;;6.00;6.00;;;;;-149.00;100.00;66333.84;5120822;28;8771;-79
2021/10/01 03:45:00;;;;;;;;;4.67;4.00;;;;;-149.00;100.00;66333.84;5119748;27;8806;-79
2021/10/01 03:47:26;;;;;;;;;3.00;3.00;;;;;-149.00;100.00;66333.84;5119626;28;8874;-79
2021/10/01 03:49:52;;;;;;;;;4.67;4.00;;;;;-149.00;100.00;66333.84;5119791;28;9050;-79
2021/10/01 03:52:18;;;;;;;;;3.00;3.00;;;;;-149.00;100.00;66333.84;5119398;27;8930;-79
2021/10/01 03:54:44;;;;;;;;;1.67;1.67;;;;;-149.00;100.00;66333.84;5119870;28;8787;-79
2021/10/01 03:57:10;;;;;;;;;4.75;4.00;;;;;-149.00;100.00;66333.84;5119336;28;8775;-79
2021/10/01 03:59:36;;;;;;;;;4.00;4.00;;;;;-149.00;100.00;66333.84;5121750;28;8794;-79
2021/10/01 04:02:02;;;;;;;;;5.67;5.00;;;;;-149.00;100.00;66333.84;5121194;27;11392;-80
2021/10/01 04:04:28;;;;;;;;;4.00;3.67;;;;;-149.00;100.00;66333.84;5121272;28;8829;-79
2021/10/01 04:06:54;;;;;;;;;6.75;6.00;;;;;-149.00;100.00;66333.84;5122337;28;8878;-79
2021/10/01 04:09:19;;;;;;;;;5.67;5.67;;;;;-149.00;100.00;66333.84;5121029;27;8775;-79
2021/10/01 04:11:45;;;;;;;;;3.67;3.67;;;;;-149.00;100.00;66333.84;5119535;28;8807;-79
2021/10/01 04:14:11;;;;;;;;;2.33;2.33;;;;;-149.00;100.00;66333.84;5119636;28;9555;-79
2021/10/01 04:16:36;;;;;;;;;4.00;4.00;;;;;-149.00;100.00;66333.84;5119305;28;8791;-79
2021/10/01 04:19:02;;;;;;;;;5.00;4.00;;;;;-149.00;100.00;66333.84;5120716;28;8798;-79
2021/10/01 04:21:27;;;;;;;;;4.33;4.00;;;;;-149.00;100.00;66333.84;5119782;28;8791;-79
2021/10/01 04:23:53;;;;;;;;;5.67;4.33;;;;;-149.00;100.00;66333.84;5119671;27;8858;-79
2021/10/01 04:26:19;;;;;;;;;5.33;5.33;;;;;-149.00;100.00;66333.84;5120163;27;8795;-79
2021/10/01 04:28:46;;;;;;;;;4.00;3.00;;;;;-149.00;100.00;66333.84;5120535;27;8767;-80
2021/10/01 04:31:12;;;;;;;;;3.00;3.00;;;;;-149.00;100.00;66333.84;5104332;28;8824;-79
2021/10/01 04:33:41;;;;;;;;;3.00;3.00;;;;;-149.00;100.00;66333.84;5102239;28;8778;-79
2021/10/01 04:36:07;;;;;;;;;0.50;0.50;;;;;-149.00;100.00;66333.84;5100492;28;8766;-79
2021/10/01 04:38:32;;;;;;;;;3.00;3.00;;;;;-149.00;100.00;66333.84;5100209;28;8816;-80
2021/10/01 04:40:59;;;;;;;;;5.00;5.00;;;;;-149.00;100.00;66333.84;5101872;28;8778;-79
2021/10/01 04:43:25;;;;;;;;;4.50;2.75;;;;;-149.00;100.00;66333.84;5102513;28;11343;-80
2021/10/01 04:45:51;;;;;;;;;3.50;3.50;;;;;-149.00;100.00;66333.84;5101721;28;8903;-78
2021/10/01 04:48:16;;;;;;;;;3.00;3.00;;;;;-149.00;100.00;66333.84;5100988;28;8786;-79
2021/10/01 04:50:42;;;;;;;;;2.67;2.67;;;;;-149.00;100.00;66333.84;5102644;28;8839;-79
2021/10/01 04:53:08;;;;;;;;;3.00;3.00;;;;;-149.00;100.00;66333.84;5101873;28;8802;-79
2021/10/01 04:55:34;;;;;;;;;4.67;4.67;;;;;-149.00;100.00;66333.84;5102288;28;8801;-79
2021/10/01 04:58:01;;;;;;;;;3.00;3.00;;;;;-149.00;100.00;66333.84;5104545;28;8879;-79
2021/10/01 05:00:27;;;;;;;;;3.75;3.00;;;;;-149.00;100.00;66333.84;5102738;28;8715;-79
2021/10/01 05:02:52;;;;;;;;;3.50;3.50;;;;;-149.00;100.00;66333.84;5099728;28;8910;-79
2021/10/01 05:05:18;;;;;;;;;6.00;4.67;;;;;-149.00;100.00;66333.84;5100898;28;8893;-79
2021/10/01 05:07:44;;;;;;;;;4.67;4.67;;;;;-149.00;100.00;66333.84;5102016;28;8881;-80
2021/10/01 05:10:10;;;;;;;;;3.00;3.00;;;;;-149.00;100.00;66333.84;5102931;28;8813;-79
2021/10/01 05:12:35;;;;;;;;;5.25;4.50;;;;;-149.00;100.00;66333.84;5101599;28;8798;-79
2021/10/01 05:15:01;;;;;;;;;3.00;3.00;;;;;-149.00;100.00;66333.84;5100360;28;9003;-79
2021/10/01 05:17:27;;;;;;;;;4.00;4.00;;;;;-149.00;100.00;66333.84;5100645;28;8798;-79
2021/10/01 05:19:53;;;;;;;;;3.75;3.75;;;;;-149.00;100.00;66333.84;5101125;28;8762;-79
2021/10/01 05:22:18;;;;;;;;;3.67;3.00;;;;;-149.00;100.00;66333.84;5099454;28;8828;-79
2021/10/01 05:24:44;;;;;;;;;2.67;2.33;;;;;-149.00;100.00;66333.84;5099119;28;8790;-79
2021/10/01 05:27:11;;;;;;;;;4.00;4.00;;;;;-149.00;100.00;66333.84;5098275;28;8813;-79
2021/10/01 05:29:37;;;;;;;;;5.50;5.00;;;;;-149.00;100.00;66333.84;5099353;28;8880;-80
2021/10/01 05:32:03;;;;;;;;;4.25;4.25;;;;;-149.00;100.00;66333.84;5116824;28;8803;-80
2021/10/01 05:34:29;;;;;;;;;4.50;4.25;;;;;-149.00;100.00;66333.84;5116630;28;8867;-81
2021/10/01 05:36:55;;;;;;;;;4.00;4.00;;;;;-149.00;100.00;66333.84;5116126;28;8779;-82
2021/10/01 05:39:21;;;;;;;;;4.00;4.00;;;;;-149.00;100.00;66333.84;5116258;28;8829;-81
2021/10/01 05:41:46;;;;;;;;;5.00;4.00;;;;;-149.00;100.00;66333.84;5116606;27;8779;-79
2021/10/01 05:44:12;;;;;;;;;5.33;5.00;;;;;-149.00;100.00;66333.84;5116854;28;8772;-79
2021/10/01 05:46:42;;;;;;;;;3.33;3.33;;;;;-149.00;100.00;66333.84;5117535;28;8803;-79
2021/10/01 05:49:13;;;;;;;;;4.50;4.00;;;;;-149.00;100.00;66333.84;5118153;27;8771;-80
2021/10/01 05:51:46;;;;;;;;;5.25;5.25;;;;;-149.00;100.00;66333.84;5116836;28;8796;-81
2021/10/01 05:54:13;;;;;;;;;4.00;4.00;;;;;-149.00;100.00;66333.84;5116882;27;9701;-80
2021/10/01 05:56:39;;;;;;;;;4.50;4.00;;;;;-149.00;100.00;66333.84;5116474;27;8747;-80
2021/10/01 05:59:06;;;;;;;;;5.00;4.00;;;;;-149.00;100.00;66333.84;5116728;28;8807;-80
2021/10/01 06:01:34;;;;;;;;;3.75;3.75;;;;;-149.00;100.00;66333.84;5120292;28;8741;-80
2021/10/01 06:04:00;;;;;;;;;5.50;5.50;;;;;-149.00;100.00;66333.84;5121960;28;8907;-79
2021/10/01 06:06:25;;;;;;;;;3.67;3.67;;;;;-149.00;100.00;66333.84;5123709;28;8712;-79
2021/10/01 06:08:51;;;;;;;;;3.00;3.00;;;;;-149.00;100.00;66333.84;5121231;28;12198;-78
2021/10/01 06:11:16;;;;;;;;;7.00;4.00;;;;;-149.00;100.00;66333.84;5125354;28;8838;-79
2021/10/01 06:13:42;;;;;;;;;4.33;4.00;;;;;-149.00;100.00;66333.84;5126113;28;8791;-79
2021/10/01 06:16:08;;;;;;;;;5.67;5.67;;;;;-149.00;100.00;66333.84;5127690;28;8779;-79
2021/10/01 06:18:33;;;;;;;;;5.00;5.00;;;;;-149.00;100.00;66333.84;5122539;27;8787;-78
2021/10/01 06:20:59;;;;;;;;;4.67;4.33;;;;;-149.00;100.00;66333.84;5119909;28;8794;-76
2021/10/01 06:23:27;;;;;;;;;4.00;4.00;;;;;-149.00;100.00;66333.84;5120016;28;8791;-77
2021/10/01 06:25:53;;;;;;;;;5.50;5.50;;;;;-149.00;100.00;66333.84;5107979;27;9680;-81
2021/10/01 06:28:19;;;;;;;;;6.00;5.00;;;;;-149.00;100.00;66333.84;5095638;28;8880;-79
2021/10/01 06:30:45;;;;;;;;;4.25;4.25;;;;;-149.00;100.00;66333.84;5111675;28;8896;-79
2021/10/01 06:33:10;;;;;;;;;2.67;2.67;;;;;-149.00;100.00;66333.84;5119893;27;8799;-79
2021/10/01 06:35:36;;;;;;;;;4.67;4.00;;;;;-149.00;100.00;66333.84;5119713;28;8782;-79
2021/10/01 06:38:02;;;;;;;;;4.00;4.00;;;;;-149.00;100.00;66333.84;5119313;27;9510;-79
2021/10/01 06:40:28;;;;;;;;;4.00;4.00;;;;;-149.00;100.00;66333.84;5117546;28;8755;-77
2021/10/01 06:42:55;;;;;;;;;5.00;4.33;;;;;-149.00;100.00;66333.84;5105016;28;8809;-78
2021/10/01 06:45:31;;;;;;;;;6.00;4.00;;;;;-149.00;100.00;66333.84;5102080;28;8840;-80
2021/10/01 07:20:48;;;;;;;;;3.75;3.75;;;;;-149.00;100.00;66333.84;5101218;28;8825;-78
2021/10/01 07:39:01;;;;;;;;;2.00;2.00;;;;;-149.00;100.00;66333.84;5097301;28;8805;-75
2021/10/01 08:20:42;;;;;;;;;1.00;1.00;;;;;-149.00;100.00;66333.84;5097106;28;9716;-76
2021/10/01 08:23:08;;;;;;;;;2.00;2.00;;;;;-149.00;100.00;66333.84;5096438;28;8766;-75
2021/10/01 08:25:34;;;;;;;;;3.50;1.50;;;;;-149.00;100.00;66333.84;5090039;28;8893;-78
2021/10/01 08:28:01;;;;;;;;;3.33;3.00;;;;;-149.00;100.00;66333.84;5091546;28;8801;-75
2021/10/01 08:30:27;;;;;;;;;3.00;3.00;;;;;-149.00;100.00;66333.84;5092089;28;8832;-76
2021/10/01 08:32:52;;;;;;;;;2.67;2.67;;;;;-149.00;100.00;66333.84;5090729;28;8828;-77
2021/10/01 08:35:22;;;;;;;;;3.00;3.00;;;;;-149.00;100.00;66333.84;5090576;28;8817;-75
2021/10/01 08:37:55;;;;;;;;;2.00;1.00;;;;;-149.00;100.00;66333.84;5088425;28;8806;-78
2021/10/01 08:40:22;;;;;;;;;2.75;2.00;;;;;-149.00;100.00;66333.84;5090533;28;8798;-77
2021/10/01 08:42:50;;;;;;;;;2.25;1.75;;;;;-149.00;100.00;66333.84;5084855;28;8779;-75
2021/10/01 08:45:18;;;;;;;;;2.00;2.00;;;;;-149.00;100.00;66333.84;5089541;28;8730;-74
2021/10/01 08:47:44;;;;;;;;;2.75;2.75;;;;;-149.00;100.00;66333.84;5093341;28;8798;-74
2021/10/01 08:50:13;;;;;;;;;2.75;2.75;;;;;-149.00;100.00;66333.84;5088542;28;8936;-74
2021/10/01 08:52:39;;;;;;;;;2.00;2.00;;;;;-149.00;100.00;66333.84;5095127;28;8785;-75
2021/10/01 08:55:08;;;;;;;;;4.00;3.00;;;;;-149.00;100.00;66333.84;5087251;28;8894;-75
2021/10/01 08:57:33;;;;;;;;;2.75;2.00;;;;;-149.00;100.00;66333.84;5089432;28;8964;-74
2021/10/01 09:00:00;;;;;;;;;3.67;3.67;;;;;-149.00;100.00;66333.84;5093348;28;8812;-74
2021/10/01 09:02:26;;;;;;;;;2.00;2.00;;;;;-149.00;100.00;66333.84;5101666;28;8807;-75
2021/10/01 09:04:58;;;;;;;;;2.75;2.75;;;;;-149.00;100.00;66333.84;5093101;28;8800;-76
2021/10/01 09:07:24;;;;;;;;;6.75;5.50;;;;;-149.00;100.00;66333.84;5090664;28;8790;-76
2021/10/01 09:09:52;;;;;;;;;3.00;3.00;;;;;-149.00;100.00;66333.84;5090098;28;8738;-76
2021/10/01 09:12:19;;;;;;;;;4.00;2.25;;;;;-149.00;100.00;66333.84;5089290;28;8836;-76
2021/10/01 09:14:52;;;;;;;;;4.25;3.50;;;;;-149.00;100.00;66333.84;5091311;28;10190;-75
2021/10/01 09:17:20;;;;;;;;;5.00;3.00;;;;;-149.00;100.00;66333.84;5081708;28;8790;-74
2021/10/01 09:19:47;;;;;;;;;2.00;2.00;;;;;-149.00;100.00;66333.84;5087331;28;8782;-74
2021/10/01 09:22:35;;;;;;;;;2.25;2.25;;;;;-149.00;100.00;66333.84;5091215;28;8726;-73
2021/10/01 09:25:23;;;;;;;;;1.00;1.00;;;;;-149.00;100.00;66333.84;5086806;28;8890;-73
2021/10/01 09:28:00;;;;;;;;;2.25;2.00;;;;;-149.00;100.00;66333.84;5093096;28;8823;-74
2021/10/01 09:30:27;;;;;;;;;2.25;1.00;;;;;-149.00;100.00;66333.84;5092349;28;8832;-73
2021/10/01 09:33:14;;;;;;;;;2.00;2.00;;;;;-149.00;100.00;66333.84;5090407;28;8753;-73
2021/10/01 09:35:44;;;;;;;;;3.00;3.00;;;;;-149.00;100.00;66333.84;5092825;28;9801;-75
2021/10/01 09:38:18;;;;;;;;;1.00;1.00;;;;;-149.00;100.00;66333.84;5092224;28;8778;-73
2021/10/01 09:41:06;;;;;;;;;0.75;0.50;;;;;-149.00;100.00;66333.84;5091259;28;8774;-73
2021/10/01 09:43:32;;;;;;;;;1.00;1.00;;;;;-149.00;100.00;66333.84;5097470;28;8786;-74
2021/10/01 09:46:06;;;;;;;;;2.00;2.00;;;;;-149.00;100.00;66333.84;5093818;28;8816;-74
2021/10/01 09:48:37;;;;;;;;;1.75;1.75;;;;;-149.00;100.00;66333.84;5094845;28;8841;-74
2021/10/01 09:51:18;;;;;;;;;2.00;1.75;;;;;-149.00;100.00;66333.84;5091938;28;8782;-73
2021/10/01 09:53:47;;;;;;;;;1.00;1.00;;;;;-149.00;100.00;66333.84;5092187;28;9780;-75
2021/10/01 09:56:30;;;;;;;;;2.50;2.00;;;;;-149.00;100.00;66333.84;5096320;28;8760;-74
2021/10/01 09:59:17;;;;;;;;;4.00;1.00;;;;;-149.00;100.00;66333.84;5085844;28;8784;-75
2021/10/01 10:02:08;;;;;;;;;4.00;4.00;;;;;-149.00;100.00;66333.84;5094046;28;8774;-77
2021/10/01 10:04:50;;;;;;;;;1.50;1.50;;;;;-149.00;100.00;66333.84;5096110;28;8723;-78
2021/10/01 10:07:24;;;;;;;;;1.75;1.75;;;;;-149.00;100.00;66333.84;5090722;28;8807;-74
2021/10/01 10:10:04;;;;;;;;;1.75;1.00;;;;;-149.00;100.00;66333.84;5097091;28;8790;-74
2021/10/01 10:12:32;;;;;;;;;3.25;1.50;;;;;-149.00;100.00;66333.84;5086521;28;8791;-74
2021/10/01 10:14:59;;;;;;;;;2.25;1.75;;;;;-149.00;100.00;66333.84;5094495;28;9667;-73
2021/10/01 10:17:27;;;;;;;;;1.00;1.00;;;;;-149.00;100.00;66333.84;5096451;28;8770;-73
2021/10/01 10:19:59;;;;;;;;;1.75;1.75;;;;;-149.00;100.00;66333.84;5094048;28;8707;-74
2021/10/01 10:22:26;;;;;;;;;2.00;2.00;;;;;-149.00;100.00;66333.84;5094942;28;8730;-74
2021/10/01 10:24:53;;;;;;;;;1.00;1.00;;;;;-149.00;100.00;66333.84;5092493;28;8781;-74
2021/10/01 10:27:20;;;;;;;;;3.00;3.00;;;;;-149.00;100.00;66333.84;5093424;28;8876;-74
2021/10/01 10:29:47;;;;;;;;;2.25;1.00;;;;;-149.00;100.00;66333.84;5090203;28;8731;-74
2021/10/01 10:32:15;;;;;;;;;2.75;2.00;;;;;-149.00;100.00;66333.84;5095384;28;8821;-74
2021/10/01 10:34:56;;;;;;;;;1.50;1.50;;;;;-149.00;100.00;66333.84;5094651;28;8790;-76
2021/10/01 10:37:42;;;;;;;;;2.00;2.00;;;;;-149.00;100.00;66333.84;5094521;28;8784;-75
2021/10/01 10:40:12;;;;;;;;;1.25;1.00;;;;;-149.00;100.00;66333.84;5093943;28;8726;-75
2021/10/01 10:42:41;;;;;;;;;2.75;2.75;;;;;-149.00;100.00;66333.84;5090082;28;8790;-77
2021/10/01 10:45:10;;;;;;;;;1.75;1.75;;;;;-149.00;100.00;66333.84;5090247;28;8794;-76
2021/10/01 10:47:58;;;;;;;;;1.25;1.25;;;;;-149.00;100.00;66333.84;5095096;28;8808;-74
2021/10/01 10:50:26;;;;;;;;;3.00;3.00;;;;;-149.00;100.00;66333.84;5094853;28;8790;-77
2021/10/01 10:53:24;;;;;;;;;1.75;1.75;;;;;-149.00;100.00;66333.84;5095455;28;8848;-76
2021/10/01 10:55:51;;;;;;;;;2.25;1.00;;;;;-149.00;100.00;66333.84;5080656;28;8746;-76
2021/10/01 10:58:23;;;;;;;;;1.00;1.00;;;;;-149.00;100.00;66333.84;5090689;28;8832;-75
2021/10/01 11:00:54;;;;;;;;;2.00;2.00;;;;;-149.00;100.00;66333.84;5092108;28;8786;-74
2021/10/01 11:03:33;;;;;;;;;2.00;2.00;;;;;-149.00;100.00;66333.84;5090365;28;8797;-76
2021/10/01 11:06:08;;;;;;;;;2.00;2.00;;;;;-149.00;100.00;66333.84;5087636;28;8870;-73
2021/10/01 11:08:38;;;;;;;;;2.75;2.75;;;;;-149.00;100.00;66333.84;5090255;28;8828;-74
2021/10/01 11:11:04;;;;;;;;;2.25;2.25;;;;;-149.00;100.00;66333.84;5087691;28;8789;-73
2021/10/01 11:13:34;;;;;;;;;2.00;2.00;;;;;-149.00;100.00;66333.84;5095435;28;8840;-73
2021/10/01 11:16:11;;;;;;;;;2.75;2.75;;;;;-149.00;100.00;66333.84;5092614;28;8890;-74
2021/10/01 11:18:37;;;;;;;;;1.75;1.75;;;;;-149.00;100.00;66333.84;5096520;28;8794;-75
2021/10/01 11:21:33;;;;;;;;;0.67;0.00;;;;;-149.00;100.00;66333.84;5095114;28;8907;-75
2021/10/01 11:24:08;;;;;;;;;1.00;1.00;;;;;-149.00;100.00;66333.84;5088781;28;8758;-77
2021/10/01 11:26:58;;;;;;;;;0.50;0.50;;;;;-149.00;100.00;66333.84;5089827;28;8792;-74
2021/10/01 11:29:33;;;;;;;;;2.25;0.25;;;;;-149.00;100.00;66333.84;5088590;28;8804;-75
2021/10/01 11:32:09;;;;;;;;;1.00;1.00;;;;;-149.00;100.00;66333.84;5093876;28;8817;-73
2021/10/01 11:34:56;;;;;;;;;1.75;1.75;;;;;-149.00;100.00;66333.84;5086708;28;8810;-73
2021/10/01 11:37:31;;;;;;;;;1.75;1.50;;;;;-149.00;100.00;66333.84;5093590;28;9727;-74
2021/10/01 11:40:06;;;;;;;;;0.25;0.25;;;;;-149.00;100.00;66333.84;5085719;28;8813;-73
2021/10/01 11:42:39;;;;;;;;;0.00;0.00;;;;;-149.00;100.00;66333.84;5091181;28;8798;-77
2021/10/01 11:45:13;;;;;;;;;1.75;0.75;;;;;-149.00;100.00;66333.84;5093745;28;9798;-75
2021/10/01 11:47:53;;;;;;;;;1.75;0.25;;;;;-149.00;100.00;66333.84;5090620;28;9778;-76
2021/10/01 11:50:28;;;;;;;;;0.75;0.75;;;;;-149.00;100.00;66333.84;5091035;28;8806;-75
2021/10/01 11:52:55;;;;;;;;;0.75;0.00;;;;;-149.00;100.00;66333.84;5092017;28;8813;-78
2021/10/01 11:55:20;;;;;;;;;1.00;1.00;;;;;-149.00;100.00;66333.84;5092276;28;8775;-74
2021/10/01 11:57:48;;;;;;;;;1.67;1.67;;;;;-149.00;100.00;66333.84;5093840;28;8832;-75
2021/10/01 12:00:22;;;;;;;;;0.75;0.25;;;;;-149.00;100.00;66333.84;5096149;28;8926;-77
2021/10/01 12:02:53;;;;;;;;;5.25;4.25;;;;;-149.00;100.00;66333.84;5092764;28;8809;-77
2021/10/01 12:05:32;;;;;;;;;1.75;1.75;;;;;-149.00;100.00;66333.84;5090186;28;8793;-75
2021/10/01 12:08:06;;;;;;;;;0.25;0.00;;;;;-149.00;100.00;66333.84;5091806;28;9755;-76
2021/10/01 12:10:41;;;;;;;;;0.00;0.00;;;;;-149.00;100.00;66333.84;5089093;28;8923;-75
2021/10/01 12:13:14;;;;;;;;;0.75;0.75;;;;;-149.00;100.00;66333.84;5092877;28;8805;-78
2021/10/01 12:15:41;;;;;;;;;1.00;1.00;;;;;-149.00;100.00;66333.84;5087367;28;8760;-75
2021/10/01 12:18:26;;;;;;;;;2.00;2.00;;;;;;;;5143355;27;14308;-80
2021/10/01 12:20:52;;;;;;;;;0.00;0.00;;;;;;;;5140995;27;8751;-78
2021/10/01 12:23:25;;;;;;;;;1.00;1.00;;;;;;;;5143760;27;8792;-80
2021/10/01 12:25:51;;;;;;;;;1.25;0.00;;;;;;;;5143988;27;8838;-78
2021/10/01 12:28:17;;;;;;;;;0.00;0.00;;;;;;;;5139622;27;8957;-78
2021/10/01 12:30:42;;;;;;;;;1.25;1.25;;;;;;;;5140548;27;8884;-79
2021/10/01 12:33:09;;;;;;;;;0.00;0.00;;;;;;;;5143968;27;8820;-79
2021/10/01 12:35:34;;;;;;;;;1.00;1.00;;;;;;;;5144997;27;9490;-78
2021/10/01 12:37:59;;;;;;;;;0.67;0.67;;;;;;;;5138663;27;8886;-78
2021/10/01 12:40:25;;;;;;;;;1.00;1.00;;;;;;;;5142609;27;8830;-77
2021/10/01 12:42:53;;;;;;;;;1.00;0.00;;;;;;;;5144730;27;8808;-80
2021/10/01 12:45:19;;;;;;;;;0.00;0.00;;;;;;;;5147489;27;8796;-80
2021/10/01 12:47:46;;;;;;;;;0.00;0.00;;;;;;;;5139477;27;8791;-79
2021/10/01 12:50:19;;;;;;;;;0.25;0.25;;;;;;;;5137064;27;8803;-78
2021/10/01 12:52:45;;;;;;;;;0.00;0.00;;;;;;;;5146483;27;8796;-78
2021/10/01 12:55:11;;;;;;;;;2.25;1.00;;;;;;;;5135897;27;9709;-79
2021/10/01 12:57:43;;;;;;;;;0.67;0.33;;;;;;;;5146272;27;8886;-77
2021/10/01 13:00:16;;;;;;;;;1.50;1.50;;;;;;;;5135364;27;8787;-77
2021/10/01 13:02:46;;;;;;;;;0.25;0.25;;;;;;;;5151707;27;9814;-76
2021/10/01 13:05:14;;;;;;;;;2.00;2.00;;;;;;;;5151194;27;9729;-78
2021/10/01 13:07:44;;;;;;;;;0.50;0.50;;;;;;;;5139555;27;8819;-79
2021/10/01 13:10:15;;;;;;;;;2.20;1.20;;;;;;;;5137090;27;8802;-78
2021/10/01 13:12:49;;;;;;;;;0.75;0.75;;;;;;;;5143844;27;8801;-78